Time;durP1;ratioP1;P1;durP2;ratioP2;P2;SDS_P1;SDS_P2;PMS_P1;PMS_P2;Temp;Humidity;BMP_temperature;BMP_pressure;BME280_temperature;BME280_humidity;BME280_pressure;Samples;Min_cycle;Max_cycle;Signal;HPM_P1;HPM_P2
2023/02/12 00:02:41;;;;;;;30.70;13.53;;;;;;;;;;6194302;23;20377;-86
2023/02/12 00:05:09;;;;;;;26.57;14.00;;;;;;;;;;6181740;23;20715;-86
2023/02/12 00:07:37;;;;;;;24.60;13.87;;;;;;;;;;6181950;23;20388;-87
2023/02/12 00:10:10;;;;;;;28.97;14.63;;;;;;;;;;6182220;23;20448;-86
2023/02/12 00:12:44;;;;;;;29.27;14.88;;;;;;;;;;6156757;23;20710;-86
2023/02/12 00:15:12;;;;;;;28.25;14.52;;;;;;;;;;6184000;23;20376;-87
2023/02/12 00:17:45;;;;;;;28.33;14.90;;;;;;;;;;6182524;23;20385;-87
2023/02/12 00:20:18;;;;;;;31.00;13.70;;;;;;;;;;6182068;23;20702;-87
2023/02/12 00:22:46;;;;;;;28.33;13.50;;;;;;;;;;6156538;23;20392;-88
2023/02/12 00:25:13;;;;;;;38.97;14.57;;;;;;;;;;6181374;23;20385;-88
2023/02/12 00:27:41;;;;;;;21.83;13.18;;;;;;;;;;6181321;23;20385;-85
2023/02/12 00:30:12;;;;;;;31.07;13.43;;;;;;;;;;6181235;23;20378;-86
2023/02/12 00:32:45;;;;;;;24.95;13.05;;;;;;;;;;6157442;23;20385;-87
2023/02/12 00:35:12;;;;;;;25.10;13.02;;;;;;;;;;6157788;23;20388;-87
2023/02/12 00:37:40;;;;;;;22.45;13.13;;;;;;;;;;6182348;23;20378;-87
2023/02/12 00:40:13;;;;;;;19.33;12.57;;;;;;;;;;6182341;23;20389;-87
2023/02/12 00:42:46;;;;;;;22.87;13.23;;;;;;;;;;6157698;23;20448;-89
2023/02/12 00:45:15;;;;;;;20.13;12.40;;;;;;;;;;6182015;23;20477;-87
2023/02/12 00:47:43;;;;;;;23.73;12.88;;;;;;;;;;6184341;23;20369;-87
2023/02/12 00:50:16;;;;;;;29.13;13.18;;;;;;;;;;6158108;23;20385;-88
2023/02/12 00:52:44;;;;;;;19.80;12.32;;;;;;;;;;6157431;23;20384;-88
2023/02/12 00:55:11;;;;;;;22.98;12.75;;;;;;;;;;6181906;23;20377;-87
2023/02/12 00:57:39;;;;;;;23.10;11.93;;;;;;;;;;6182470;23;20396;-88
2023/02/12 01:00:08;;;;;;;24.95;11.95;;;;;;;;;;6182012;23;20392;-87
2023/02/12 01:02:37;;;;;;;22.02;12.10;;;;;;;;;;6182555;23;20377;-87
2023/02/12 01:05:08;;;;;;;17.95;11.65;;;;;;;;;;6181815;23;20385;-87
2023/02/12 01:07:40;;;;;;;21.00;12.05;;;;;;;;;;6181645;23;20374;-88
2023/02/12 01:10:08;;;;;;;18.05;11.38;;;;;;;;;;6181613;23;20381;-86
2023/02/12 01:12:36;;;;;;;17.38;11.10;;;;;;;;;;6157074;23;20849;-87
2023/02/12 01:15:04;;;;;;;17.65;10.85;;;;;;;;;;6157309;23;20384;-87
2023/02/12 01:17:38;;;;;;;16.40;11.00;;;;;;;;;;6181245;23;20380;-87
2023/02/12 01:20:07;;;;;;;21.92;11.35;;;;;;;;;;6183898;23;20365;-87
2023/02/12 01:22:35;;;;;;;23.70;11.50;;;;;;;;;;6181946;23;20384;-88
2023/02/12 01:25:03;;;;;;;12.95;9.70;;;;;;;;;;6183959;23;20823;-86
2023/02/12 01:27:31;;;;;;;14.68;10.05;;;;;;;;;;6157807;23;20711;-86
2023/02/12 01:29:59;;;;;;;15.10;10.15;;;;;;;;;;6184148;23;20365;-87
2023/02/12 01:32:34;;;;;;;20.83;10.38;;;;;;;;;;6182018;23;20388;-88
2023/02/12 01:35:03;;;;;;;15.32;9.50;;;;;;;;;;6181014;23;20381;-87
2023/02/12 01:37:31;;;;;;;16.40;9.63;;;;;;;;;;6156936;23;20373;-87
2023/02/12 01:40:04;;;;;;;12.10;8.80;;;;;;;;;;6181224;23;20381;-87
2023/02/12 01:42:32;;;;;;;13.43;9.05;;;;;;;;;;6183836;23;20368;-86
2023/02/12 01:45:39;;;;;;;11.45;8.00;;;;;;;;;;6156667;23;20842;-87
2023/02/12 01:48:13;;;;;;;12.05;8.90;;;;;;;;;;6193727;23;20399;-87
2023/02/12 01:50:48;;;;;;;14.43;9.27;;;;;;;;;;6157116;23;20396;-89
2023/02/12 01:53:21;;;;;;;12.50;9.27;;;;;;;;;;6181626;23;20388;-88
2023/02/12 01:55:50;;;;;;;14.05;9.27;;;;;;;;;;6157210;23;21025;-87
2023/02/12 01:58:18;;;;;;;14.18;8.70;;;;;;;;;;6156656;23;20382;-86
2023/02/12 02:00:46;;;;;;;13.33;8.73;;;;;;;;;;6156971;23;20469;-89
2023/02/12 02:03:14;;;;;;;12.50;8.88;;;;;;;;;;6156280;23;20878;-89
2023/02/12 02:05:54;;;;;;;13.18;8.85;;;;;;;;;;6180723;23;20373;-86
2023/02/12 02:08:26;;;;;;;15.40;9.75;;;;;;;;;;6156485;23;20850;-86
2023/02/12 02:10:59;;;;;;;12.52;9.00;;;;;;;;;;6156712;23;20385;-87
2023/02/12 02:16:20;;;;;;;16.43;9.67;;;;;;;;;;6157457;23;20390;-87
2023/02/12 02:18:52;;;;;;;14.77;9.70;;;;;;;;;;6156303;23;20381;-87
2023/02/12 02:21:35;;;;;;;14.30;9.60;;;;;;;;;;6156292;23;20373;-87
2023/02/12 02:24:22;;;;;;;13.30;9.40;;;;;;;;;;6156543;23;20879;-88
2023/02/12 02:26:54;;;;;;;15.15;10.07;;;;;;;;;;6192946;23;20358;-88
2023/02/12 02:29:39;;;;;;;15.93;10.50;;;;;;;;;;6156180;23;20385;-87
2023/02/12 02:32:10;;;;;;;15.63;10.47;;;;;;;;;;6156563;23;20688;-88
2023/02/12 02:34:39;;;;;;;15.73;10.10;;;;;;;;;;6156445;23;20378;-86
2023/02/12 02:37:13;;;;;;;14.73;10.35;;;;;;;;;;6183579;23;20365;-87
2023/02/12 02:39:48;;;;;;;14.82;10.50;;;;;;;;;;6181355;23;20876;-87
2023/02/12 02:42:19;;;;;;;13.85;10.35;;;;;;;;;;6156864;23;20381;-87
2023/02/12 02:44:53;;;;;;;15.40;10.00;;;;;;;;;;6181004;23;20385;-87
2023/02/12 02:47:25;;;;;;;13.93;10.02;;;;;;;;;;6180896;23;20711;-87
2023/02/12 02:49:56;;;;;;;16.48;11.20;;;;;;;;;;6181233;23;20392;-86
2023/02/12 02:52:31;;;;;;;15.13;11.02;;;;;;;;;;6181407;23;20719;-87
2023/02/12 02:55:06;;;;;;;14.02;10.40;;;;;;;;;;6193575;23;20377;-87
2023/02/12 02:57:36;;;;;;;16.02;10.93;;;;;;;;;;6182718;23;20377;-87
2023/02/12 03:00:13;;;;;;;14.38;10.52;;;;;;;;;;6158454;23;20397;-89
2023/02/12 03:02:45;;;;;;;14.98;10.57;;;;;;;;;;6182866;23;20377;-87
2023/02/12 03:05:14;;;;;;;16.52;10.77;;;;;;;;;;6159542;23;20381;-86
2023/02/12 03:07:49;;;;;;;17.52;11.05;;;;;;;;;;6183984;23;20406;-88
2023/02/12 03:10:23;;;;;;;14.93;10.52;;;;;;;;;;6195492;23;20377;-87
2023/02/12 03:12:58;;;;;;;13.18;9.40;;;;;;;;;;6183073;23;20381;-87
2023/02/12 03:15:33;;;;;;;13.25;9.80;;;;;;;;;;6182904;23;20392;-87
2023/02/12 03:18:10;;;;;;;13.77;9.40;;;;;;;;;;6158575;23;20388;-86
2023/02/12 03:20:45;;;;;;;12.63;9.25;;;;;;;;;;6158234;23;20858;-87
2023/02/12 03:23:19;;;;;;;13.45;9.25;;;;;;;;;;6158566;23;20408;-87
2023/02/12 03:25:49;;;;;;;12.93;8.88;;;;;;;;;;6157666;23;20387;-87
2023/02/12 03:28:19;;;;;;;13.13;9.13;;;;;;;;;;6184925;23;20361;-87
2023/02/12 03:30:52;;;;;;;12.65;8.95;;;;;;;;;;6182486;23;20384;-87
2023/02/12 03:33:29;;;;;;;13.45;9.43;;;;;;;;;;6158570;23;20408;-88
2023/02/12 03:36:06;;;;;;;12.20;8.57;;;;;;;;;;6158573;23;20692;-88
2023/02/12 03:38:42;;;;;;;11.97;8.57;;;;;;;;;;6183498;23;20381;-88
2023/02/12 03:41:20;;;;;;;12.88;9.15;;;;;;;;;;6195115;23;20388;-87
2023/02/12 03:43:50;;;;;;;11.60;8.35;;;;;;;;;;6158635;23;20369;-87
2023/02/12 03:46:20;;;;;;;11.98;8.38;;;;;;;;;;6182587;23;20710;-87
2023/02/12 03:48:56;;;;;;;11.18;8.10;;;;;;;;;;6158177;23;20385;-88
2023/02/12 03:51:32;;;;;;;11.82;8.30;;;;;;;;;;6188681;23;20382;-87
2023/02/12 03:54:00;;;;;;;13.18;9.52;;;;;;;;;;6182039;23;20377;-87
2023/02/12 03:56:37;;;;;;;13.25;8.88;;;;;;;;;;6157887;23;20384;-88
2023/02/12 03:59:05;;;;;;;12.40;8.70;;;;;;;;;;6158426;23;20381;-88
2023/02/12 04:01:38;;;;;;;12.93;8.63;;;;;;;;;;6157841;23;20385;-88
2023/02/12 04:04:12;;;;;;;11.40;8.27;;;;;;;;;;6157616;23;20838;-88
2023/02/12 04:06:40;;;;;;;14.02;9.05;;;;;;;;;;6157755;23;20384;-87
2023/02/12 04:09:09;;;;;;;13.15;9.25;;;;;;;;;;6157929;23;20842;-87
2023/02/12 04:11:44;;;;;;;14.00;9.27;;;;;;;;;;6157885;23;20381;-87
2023/02/12 04:14:17;;;;;;;12.55;8.77;;;;;;;;;;6157755;23;20388;-87
2023/02/12 04:16:48;;;;;;;11.80;8.88;;;;;;;;;;6157767;23;20382;-87
2023/02/12 04:19:30;;;;;;;12.70;9.27;;;;;;;;;;6157665;23;21216;-87
2023/02/12 04:22:11;;;;;;;14.20;10.23;;;;;;;;;;6194592;23;20691;-86
2023/02/12 04:24:44;;;;;;;12.88;9.48;;;;;;;;;;6194625;23;20799;-88
2023/02/12 04:27:19;;;;;;;16.10;9.57;;;;;;;;;;6182131;23;20738;-88
2023/02/12 04:29:48;;;;;;;13.30;9.68;;;;;;;;;;6184510;23;20385;-87
2023/02/12 04:32:25;;;;;;;12.43;9.68;;;;;;;;;;6181690;23;20392;-88
2023/02/12 04:35:05;;;;;;;13.68;9.50;;;;;;;;;;6157328;23;20791;-88
2023/02/12 04:37:40;;;;;;;12.15;9.38;;;;;;;;;;6158178;23;20394;-87
2023/02/12 04:40:14;;;;;;;15.10;9.57;;;;;;;;;;6182221;23;20696;-88
2023/02/12 04:42:43;;;;;;;12.40;9.00;;;;;;;;;;6157458;23;20381;-87
2023/02/12 04:45:11;;;;;;;11.48;8.82;;;;;;;;;;6183877;23;20365;-87
2023/02/12 04:47:39;;;;;;;12.88;8.65;;;;;;;;;;6184065;23;20993;-87
2023/02/12 04:50:09;;;;;;;14.55;8.70;;;;;;;;;;6157283;23;21150;-87
2023/02/12 04:52:42;;;;;;;12.27;8.70;;;;;;;;;;6181378;23;20477;-89
2023/02/12 04:55:10;;;;;;;13.25;9.40;;;;;;;;;;6193967;23;20364;-87
2023/02/12 04:57:43;;;;;;;12.63;9.32;;;;;;;;;;6157749;23;20687;-88
2023/02/12 05:00:12;;;;;;;13.27;9.40;;;;;;;;;;6157257;23;20872;-88
2023/02/12 05:02:46;;;;;;;12.23;9.25;;;;;;;;;;6157707;23;20445;-87
2023/02/12 05:05:15;;;;;;;14.93;10.10;;;;;;;;;;6156981;23;20826;-88
2023/02/12 05:07:43;;;;;;;17.20;9.82;;;;;;;;;;6183623;23;20373;-87
2023/02/12 05:10:15;;;;;;;14.47;9.90;;;;;;;;;;6193796;23;20388;-87
2023/02/12 05:12:43;;;;;;;14.20;10.80;;;;;;;;;;6181901;23;20391;-88
2023/02/12 05:15:11;;;;;;;16.30;11.02;;;;;;;;;;6183533;23;20377;-88
2023/02/12 05:17:39;;;;;;;15.10;11.20;;;;;;;;;;6156874;23;20874;-88
2023/02/12 05:20:07;;;;;;;18.73;11.93;;;;;;;;;;6156250;23;20897;-88
2023/02/12 05:22:41;;;;;;;17.02;11.95;;;;;;;;;;6182128;23;20392;-86
2023/02/12 05:25:14;;;;;;;16.37;11.53;;;;;;;;;;6157662;23;20469;-88
2023/02/12 05:27:42;;;;;;;19.63;12.43;;;;;;;;;;6157495;23;20429;-88
2023/02/12 05:30:15;;;;;;;18.83;11.90;;;;;;;;;;6181622;23;20377;-88
2023/02/12 05:32:43;;;;;;;17.80;11.75;;;;;;;;;;6183954;23;20365;-87
2023/02/12 05:35:10;;;;;;;19.95;12.95;;;;;;;;;;6183499;23;20384;-87
2023/02/12 05:37:38;;;;;;;17.97;12.60;;;;;;;;;;6182032;23;20373;-87
2023/02/12 05:40:13;;;;;;;22.73;12.87;;;;;;;;;;6156488;23;20389;-88
2023/02/12 05:42:46;;;;;;;18.67;12.30;;;;;;;;;;6181795;23;20411;-88
2023/02/12 05:45:18;;;;;;;18.83;12.25;;;;;;;;;;6181105;23;20392;-87
2023/02/12 05:47:51;;;;;;;16.70;11.50;;;;;;;;;;6182140;23;20452;-88
2023/02/12 05:50:19;;;;;;;19.30;11.93;;;;;;;;;;6181409;23;20388;-87
2023/02/12 05:52:59;;;;;;;18.58;11.63;;;;;;;;;;6181556;23;20876;-88
2023/02/12 05:55:33;;;;;;;16.90;10.97;;;;;;;;;;6156211;23;20388;-87
2023/02/12 05:58:06;;;;;;;14.27;10.57;;;;;;;;;;6182030;23;20381;-86
2023/02/12 06:00:33;;;;;;;16.70;10.02;;;;;;;;;;6181951;23;20388;-88
2023/02/12 06:03:01;;;;;;;15.30;10.38;;;;;;;;;;6180300;23;20404;-87
2023/02/12 06:05:29;;;;;;;16.75;10.73;;;;;;;;;;6183238;23;20365;-87
2023/02/12 06:08:02;;;;;;;16.63;10.43;;;;;;;;;;6157069;23;20391;-88
2023/02/12 06:10:36;;;;;;;16.15;9.48;;;;;;;;;;6181143;23;20389;-87
2023/02/12 06:13:04;;;;;;;16.83;9.07;;;;;;;;;;6152613;23;21278;-88
2023/02/12 06:15:32;;;;;;;16.92;8.88;;;;;;;;;;6155087;23;20393;-87
2023/02/12 06:18:00;;;;;;;19.35;9.50;;;;;;;;;;6183150;23;20361;-87
2023/02/12 06:20:27;;;;;;;13.70;9.45;;;;;;;;;;6155362;23;20878;-88
2023/02/12 06:22:55;;;;;;;19.30;9.45;;;;;;;;;;6156252;23;20381;-87
2023/02/12 06:25:28;;;;;;;15.60;10.15;;;;;;;;;;6156187;23;20381;-88
2023/02/12 06:27:57;;;;;;;29.83;10.27;;;;;;;;;;6156518;23;20381;-87
2023/02/12 06:30:25;;;;;;;16.20;9.68;;;;;;;;;;6183231;23;20843;-88
2023/02/12 06:32:53;;;;;;;21.23;10.38;;;;;;;;;;6156510;23;20377;-87
2023/02/12 06:35:25;;;;;;;16.17;9.98;;;;;;;;;;6155560;23;20385;-87
2023/02/12 06:37:53;;;;;;;21.75;10.30;;;;;;;;;;6156721;23;20401;-87
2023/02/12 06:40:26;;;;;;;37.60;9.33;;;;;;;;;;6181339;23;20385;-88
2023/02/12 06:43:00;;;;;;;25.13;10.17;;;;;;;;;;6180262;23;20396;-89
2023/02/12 06:45:28;;;;;;;43.22;10.13;;;;;;;;;;6182805;23;20368;-87
2023/02/12 06:47:56;;;;;;;26.45;10.32;;;;;;;;;;6156828;23;20381;-87
2023/02/12 06:50:24;;;;;;;34.08;9.82;;;;;;;;;;6155965;23;20377;-88
2023/02/12 06:52:53;;;;;;;45.60;11.00;;;;;;;;;;6182332;23;20386;-88
2023/02/12 06:55:21;;;;;;;67.28;11.57;;;;;;;;;;6182663;23;20377;-87
2023/02/12 06:57:54;;;;;;;71.88;12.15;;;;;;;;;;6192630;23;20381;-87
2023/02/12 07:00:23;;;;;;;56.72;12.88;;;;;;;;;;6181371;23;20710;-87
2023/02/12 07:02:52;;;;;;;27.08;12.18;;;;;;;;;;6181076;23;20373;-88
2023/02/12 07:05:25;;;;;;;41.03;11.93;;;;;;;;;;6192375;23;20377;-86
2023/02/12 07:07:52;;;;;;;48.73;12.70;;;;;;;;;;6180795;23;20450;-89
2023/02/12 07:10:20;;;;;;;47.77;11.80;;;;;;;;;;6180803;23;20388;-87
2023/02/12 07:12:48;;;;;;;54.30;11.80;;;;;;;;;;6155453;23;20385;-86
2023/02/12 07:15:16;;;;;;;50.65;11.25;;;;;;;;;;6156250;23;20877;-86
2023/02/12 07:17:45;;;;;;;44.45;10.75;;;;;;;;;;6180757;23;20692;-86
2023/02/12 07:20:13;;;;;;;39.38;10.43;;;;;;;;;;6180375;23;20388;-88
2023/02/12 07:22:46;;;;;;;50.63;10.90;;;;;;;;;;6180989;23;20382;-87
2023/02/12 07:25:18;;;;;;;81.47;11.55;;;;;;;;;;6180267;23;20369;-87
2023/02/12 07:27:46;;;;;;;52.38;12.25;;;;;;;;;;6182722;23;20357;-86
2023/02/12 07:30:14;;;;;;;49.75;11.55;;;;;;;;;;6180800;23;20380;-86
2023/02/12 07:32:48;;;;;;;64.45;10.95;;;;;;;;;;6192406;23;20377;-87
2023/02/12 07:35:16;;;;;;;46.77;11.20;;;;;;;;;;6179487;23;20400;-87
2023/02/12 07:37:49;;;;;;;44.80;11.47;;;;;;;;;;6181351;23;20392;-86
2023/02/12 07:40:17;;;;;;;79.03;12.43;;;;;;;;;;6180311;23;20442;-87
2023/02/12 07:42:45;;;;;;;48.40;12.40;;;;;;;;;;6180061;23;20718;-87
2023/02/12 07:45:12;;;;;;;57.03;12.57;;;;;;;;;;6181420;23;20380;-87
2023/02/12 07:47:40;;;;;;;67.80;13.20;;;;;;;;;;6157183;23;20388;-87
2023/02/12 07:50:14;;;;;;;36.03;12.63;;;;;;;;;;6157961;23;20385;-89
2023/02/12 07:52:42;;;;;;;36.88;13.63;;;;;;;;;;6182322;23;20385;-87
2023/02/12 07:55:15;;;;;;;46.63;13.45;;;;;;;;;;6193983;23;20385;-87
2023/02/12 07:57:43;;;;;;;57.85;13.35;;;;;;;;;;6182976;23;20404;-86
2023/02/12 08:00:16;;;;;;;42.35;13.63;;;;;;;;;;6181788;23;20381;-86
2023/02/12 08:02:44;;;;;;;38.40;13.73;;;;;;;;;;6182771;23;20688;-87
2023/02/12 08:05:11;;;;;;;56.25;13.02;;;;;;;;;;6156685;23;20388;-87
2023/02/12 08:07:40;;;;;;;44.40;13.48;;;;;;;;;;6181444;23;20373;-87
2023/02/12 08:10:08;;;;;;;35.97;13.83;;;;;;;;;;6184114;23;20372;-88
2023/02/12 08:12:41;;;;;;;35.53;13.15;;;;;;;;;;6182640;23;20381;-87
2023/02/12 08:15:14;;;;;;;33.75;12.73;;;;;;;;;;6156914;23;20385;-86
2023/02/12 08:17:42;;;;;;;28.52;12.48;;;;;;;;;;6157667;23;20850;-86
2023/02/12 08:20:10;;;;;;;33.40;12.25;;;;;;;;;;6157520;23;20392;-87
2023/02/12 08:22:44;;;;;;;30.98;13.77;;;;;;;;;;6181444;23;21073;-86
2023/02/12 08:25:12;;;;;;;33.23;13.40;;;;;;;;;;6181773;23;20419;-86
2023/02/12 08:27:45;;;;;;;29.83;13.45;;;;;;;;;;6156712;23;20381;-87
2023/02/12 08:30:13;;;;;;;31.33;13.68;;;;;;;;;;6184041;23;20362;-87
2023/02/12 08:32:40;;;;;;;26.47;13.27;;;;;;;;;;6180811;23;20385;-87
2023/02/12 08:35:08;;;;;;;28.33;12.73;;;;;;;;;;6181238;23;20385;-87
2023/02/12 08:37:41;;;;;;;28.37;13.83;;;;;;;;;;6157169;23;20396;-87
2023/02/12 08:40:12;;;;;;;30.63;13.67;;;;;;;;;;6154713;23;20442;-88
2023/02/12 08:42:45;;;;;;;26.55;13.57;;;;;;;;;;6190491;23;20384;-89
2023/02/12 08:45:18;;;;;;;30.05;14.32;;;;;;;;;;6180095;23;20392;-86
2023/02/12 08:47:47;;;;;;;29.13;13.65;;;;;;;;;;6156924;23;20388;-88
2023/02/12 08:50:15;;;;;;;29.83;14.20;;;;;;;;;;6181838;23;20377;-87
2023/02/12 08:52:48;;;;;;;30.50;15.10;;;;;;;;;;6181642;23;20385;-87
2023/02/12 08:55:22;;;;;;;28.33;13.98;;;;;;;;;;6157669;23;20710;-88
2023/02/12 08:57:56;;;;;;;30.63;14.80;;;;;;;;;;6157379;23;20385;-89
2023/02/12 09:00:24;;;;;;;37.13;17.30;;;;;;;;;;6180105;23;20707;-88
2023/02/12 09:02:54;;;;;;;34.45;15.75;;;;;;;;;;6180608;23;20399;-84
2023/02/12 09:05:23;;;;;;;40.63;16.45;;;;;;;;;;6181148;23;20385;-90
2023/02/12 09:07:56;;;;;;;39.03;16.27;;;;;;;;;;6155174;23;20396;-89
2023/02/12 09:10:30;;;;;;;33.28;15.40;;;;;;;;;;6156512;23;20396;-89
2023/02/12 09:13:00;;;;;;;33.92;15.38;;;;;;;;;;6193421;23;20357;-90
2023/02/12 09:15:46;;;;;;;;;;;;;;;;;;;;;
2023/02/12 09:18:14;;;;;;;40.38;15.68;;;;;;;;;;6154958;23;20393;-87
2023/02/12 09:20:43;;;;;;;30.75;16.08;;;;;;;;;;6180874;23;20388;-86
2023/02/12 09:23:16;;;;;;;30.73;15.75;;;;;;;;;;6181119;23;20381;-86
2023/02/12 09:25:52;;;;;;;25.77;14.15;;;;;;;;;;6181182;23;20381;-89
2023/02/12 09:28:25;;;;;;;25.63;14.30;;;;;;;;;;6157100;23;20388;-89
2023/02/12 09:30:56;;;;;;;26.88;14.57;;;;;;;;;;6180506;23;20381;-88
2023/02/12 09:33:24;;;;;;;22.60;12.93;;;;;;;;;;6181049;23;20392;-91
2023/02/12 09:35:52;;;;;;;26.50;14.05;;;;;;;;;;6180273;23;20381;-85
2023/02/12 09:38:25;;;;;;;23.48;13.00;;;;;;;;;;6155121;23;20385;-83
2023/02/12 09:41:07;;;;;;;25.80;13.35;;;;;;;;;;6179785;23;20378;-86
2023/02/12 09:43:42;;;;;;;25.10;13.63;;;;;;;;;;6180458;23;20373;-88
2023/02/12 09:46:16;;;;;;;24.70;13.15;;;;;;;;;;6182827;23;20357;-90
2023/02/12 09:48:53;;;;;;;23.60;12.82;;;;;;;;;;6180607;23;20392;-89
2023/02/12 09:51:22;;;;;;;23.00;12.48;;;;;;;;;;6180521;23;20384;-89
2023/02/12 09:54:00;;;;;;;21.42;12.45;;;;;;;;;;6180815;23;20385;-89
2023/02/12 09:56:37;;;;;;;19.55;11.90;;;;;;;;;;6155930;23;20392;-88
2023/02/12 09:59:07;;;;;;;20.30;12.48;;;;;;;;;;6155353;23;20388;-88
2023/02/12 10:01:35;;;;;;;20.90;12.63;;;;;;;;;;6154699;23;20382;-87
2023/02/12 10:04:04;;;;;;;22.33;13.32;;;;;;;;;;6154920;23;20858;-87
2023/02/12 10:06:40;;;;;;;19.65;11.70;;;;;;;;;;6179884;23;20385;-88
2023/02/12 10:09:25;;;;;;;22.67;12.95;;;;;;;;;;6180280;23;20377;-86
2023/02/12 10:12:04;;;;;;;20.63;12.82;;;;;;;;;;6193346;23;20377;-91
2023/02/12 10:14:46;;;;;;;21.75;12.77;;;;;;;;;;6180753;23;21359;-90
2023/02/12 10:17:19;;;;;;;22.67;13.20;;;;;;;;;;6176793;23;20388;-88
2023/02/12 10:20:00;;;;;;;18.15;12.00;;;;;;;;;;6187787;23;20361;-87
2023/02/12 10:22:32;;;;;;;21.90;12.18;;;;;;;;;;6154743;23;20381;-87
2023/02/12 10:25:08;;;;;;;21.55;11.98;;;;;;;;;;6181046;23;20384;-87
2023/02/12 10:27:46;;;;;;;21.63;12.45;;;;;;;;;;6193229;23;20377;-84
2023/02/12 10:30:21;;;;;;;20.17;11.65;;;;;;;;;;6179461;23;20381;-88
2023/02/12 10:33:01;;;;;;;20.77;11.70;;;;;;;;;;6153668;23;20404;-88
2023/02/12 10:35:35;;;;;;;18.90;12.18;;;;;;;;;;6154785;23;20381;-89
2023/02/12 10:38:04;;;;;;;28.08;13.23;;;;;;;;;;6179668;23;20385;-89
2023/02/12 10:40:37;;;;;;;19.10;11.88;;;;;;;;;;6192149;23;20679;-89
2023/02/12 10:43:06;;;;;;;23.40;11.75;;;;;;;;;;6180830;23;20385;-90
2023/02/12 10:45:36;;;;;;;20.30;11.63;;;;;;;;;;6179991;23;20381;-89
2023/02/12 10:48:11;;;;;;;21.55;12.27;;;;;;;;;;6155846;23;20376;-87
2023/02/12 10:50:42;;;;;;;23.25;12.85;;;;;;;;;;6156159;23;20377;-89
2023/02/12 10:53:13;;;;;;;22.15;12.00;;;;;;;;;;6180811;23;20707;-86
2023/02/12 10:55:41;;;;;;;23.93;11.97;;;;;;;;;;6181589;23;20446;-89
2023/02/12 10:58:18;;;;;;;23.38;12.93;;;;;;;;;;6179677;23;20389;-88
2023/02/12 11:00:46;;;;;;;21.20;12.45;;;;;;;;;;6177562;23;20385;-88
2023/02/12 11:03:20;;;;;;;22.25;12.73;;;;;;;;;;6179209;23;20691;-88
2023/02/12 11:05:53;;;;;;;21.98;13.13;;;;;;;;;;6178831;23;20400;-90
2023/02/12 11:08:31;;;;;;;21.73;13.03;;;;;;;;;;6180701;23;21028;-88
2023/02/12 11:11:07;;;;;;;22.45;13.07;;;;;;;;;;6182321;23;20365;-88
2023/02/12 11:13:44;;;;;;;21.27;12.85;;;;;;;;;;6180159;23;20392;-87
2023/02/12 11:16:12;;;;;;;22.03;14.53;;;;;;;;;;6156149;23;20377;-86
2023/02/12 11:18:41;;;;;;;19.75;12.05;;;;;;;;;;6182906;23;20385;-87
2023/02/12 11:21:14;;;;;;;22.00;13.88;;;;;;;;;;6183030;23;20380;-87
2023/02/12 11:23:42;;;;;;;23.38;14.45;;;;;;;;;;6157153;23;20382;-88
2023/02/12 11:26:23;;;;;;;21.33;15.02;;;;;;;;;;6181586;23;20381;-87
2023/02/12 11:28:54;;;;;;;24.15;14.98;;;;;;;;;;6157820;23;20385;-88
2023/02/12 11:31:23;;;;;;;28.52;16.17;;;;;;;;;;6157732;23;20381;-88
2023/02/12 11:34:10;;;;;;;23.45;15.60;;;;;;;;;;6182685;23;20439;-88
2023/02/12 11:36:43;;;;;;;26.45;17.10;;;;;;;;;;6194360;23;20376;-87
2023/02/12 11:39:20;;;;;;;27.23;17.80;;;;;;;;;;6181982;23;20385;-87
2023/02/12 11:41:50;;;;;;;28.63;17.95;;;;;;;;;;6182029;23;20377;-87
2023/02/12 11:44:21;;;;;;;26.95;16.77;;;;;;;;;;6180836;23;20385;-87
2023/02/12 11:46:55;;;;;;;31.83;18.57;;;;;;;;;;6182163;23;20443;-87
2023/02/12 11:49:23;;;;;;;24.80;16.13;;;;;;;;;;6181301;23;20381;-88
2023/02/12 11:51:57;;;;;;;27.43;16.97;;;;;;;;;;6182559;23;20388;-87
2023/02/12 11:54:26;;;;;;;27.37;17.43;;;;;;;;;;6156973;23;20382;-87
2023/02/12 11:56:59;;;;;;;30.17;18.87;;;;;;;;;;6182104;23;20400;-88
2023/02/12 11:59:31;;;;;;;27.88;17.80;;;;;;;;;;6182356;23;20893;-88
2023/02/12 12:02:02;;;;;;;29.65;18.25;;;;;;;;;;6181954;23;20381;-87
2023/02/12 12:04:35;;;;;;;30.75;18.58;;;;;;;;;;6155776;23;20389;-87
2023/02/12 12:07:05;;;;;;;30.52;19.75;;;;;;;;;;6191275;23;20361;-87
2023/02/12 12:09:40;;;;;;;30.88;18.75;;;;;;;;;;6181930;23;20374;-85
2023/02/12 12:12:15;;;;;;;27.00;17.95;;;;;;;;;;6156583;23;20468;-87
2023/02/12 12:20:29;;;;;;;27.30;17.92;;;;;;;;;;6156295;23;20385;-87
2023/02/12 12:22:59;;;;;;;31.83;19.40;;;;;;;;;;6181446;23;21029;-87
2023/02/12 12:25:29;;;;;;;25.92;18.02;;;;;;;;;;6181816;23;21056;-87
2023/02/12 12:28:04;;;;;;;25.70;18.00;;;;;;;;;;6181484;23;20381;-88
2023/02/12 12:30:43;;;;;;;29.92;18.20;;;;;;;;;;6182018;23;20373;-87
2023/02/12 12:33:14;;;;;;;27.20;19.13;;;;;;;;;;6192707;23;20384;-87
2023/02/12 12:35:50;;;;;;;29.35;19.02;;;;;;;;;;6181228;23;20381;-88
2023/02/12 12:38:24;;;;;;;23.90;17.40;;;;;;;;;;6182167;23;20392;-88
2023/02/12 12:41:02;;;;;;;26.73;18.27;;;;;;;;;;6156201;23;21207;-88
2023/02/12 12:43:41;;;;;;;23.92;17.65;;;;;;;;;;6181888;23;20551;-89
2023/02/12 12:46:21;;;;;;;27.30;18.38;;;;;;;;;;6181869;23;20389;-87
2023/02/12 12:48:55;;;;;;;28.77;18.45;;;;;;;;;;6193469;23;20357;-87
2023/02/12 12:51:29;;;;;;;26.92;19.30;;;;;;;;;;6181709;23;20404;-87
2023/02/12 12:54:08;;;;;;;30.88;18.63;;;;;;;;;;6182491;23;20385;-88
2023/02/12 12:56:48;;;;;;;27.00;18.35;;;;;;;;;;6179172;23;20381;-87
2023/02/12 12:59:36;;;;;;;31.07;19.30;;;;;;;;;;6193383;23;20381;-86
2023/02/12 13:02:28;;;;;;;27.30;20.23;;;;;;;;;;6177063;23;20385;-86
2023/02/12 13:05:19;;;;;;;28.53;20.27;;;;;;;;;;6075076;23;20488;-87
2023/02/12 13:07:56;;;;;;;26.70;18.97;;;;;;;;;;6155512;23;20421;-87
2023/02/12 13:10:34;;;;;;;27.48;18.73;;;;;;;;;;6155856;23;20381;-88
2023/02/12 13:13:08;;;;;;;26.02;18.15;;;;;;;;;;6193082;23;20369;-89
2023/02/12 13:15:39;;;;;;;26.52;19.15;;;;;;;;;;6179823;23;20408;-89
2023/02/12 13:18:12;;;;;;;30.55;20.85;;;;;;;;;;6180604;23;20385;-87
2023/02/12 13:20:51;;;;;;;30.33;19.30;;;;;;;;;;6181391;23;20385;-87
2023/02/12 13:23:23;;;;;;;29.90;18.42;;;;;;;;;;6190278;23;20365;-87
2023/02/12 13:25:58;;;;;;;24.92;18.58;;;;;;;;;;6180707;23;20384;-87
2023/02/12 13:28:33;;;;;;;27.45;19.55;;;;;;;;;;6180221;23;20386;-87
2023/02/12 13:31:09;;;;;;;28.98;19.67;;;;;;;;;;6192446;23;20380;-86
2023/02/12 13:33:41;;;;;;;31.23;19.35;;;;;;;;;;6156083;23;20400;-87
2023/02/12 13:36:15;;;;;;;29.92;20.10;;;;;;;;;;6192698;23;20400;-88
2023/02/12 13:38:47;;;;;;;27.67;19.30;;;;;;;;;;6179918;23;20397;-90
2023/02/12 13:41:20;;;;;;;28.55;19.73;;;;;;;;;;6180008;23;20374;-87
2023/02/12 13:44:01;;;;;;;28.05;19.85;;;;;;;;;;6179614;23;20377;-87
2023/02/12 13:46:33;;;;;;;29.00;19.75;;;;;;;;;;6178751;23;20389;-88
2023/02/12 13:49:09;;;;;;;28.80;19.90;;;;;;;;;;6155258;23;20377;-85
2023/02/12 13:51:42;;;;;;;29.80;19.75;;;;;;;;;;6184005;23;20521;-88
2023/02/12 13:54:15;;;;;;;27.75;19.88;;;;;;;;;;6179527;23;20381;-85
2023/02/12 13:56:44;;;;;;;30.83;19.83;;;;;;;;;;6180033;23;20378;-86
2023/02/12 13:59:35;;;;;;;27.88;19.30;;;;;;;;;;6176766;23;20874;-86
2023/02/12 14:02:23;;;;;;;30.83;20.83;;;;;;;;;;6179757;23;20389;-85
2023/02/12 14:04:55;;;;;;;32.17;20.92;;;;;;;;;;6192077;23;20815;-85
2023/02/12 14:07:42;;;;;;;28.92;17.58;;;;;;;;;;6180303;23;20388;-84
2023/02/12 14:10:20;;;;;;;27.55;17.92;;;;;;;;;;6180015;23;20707;-85
2023/02/12 14:12:47;;;;;;;22.90;19.15;;;;;;;;;;6180338;23;20381;-85
2023/02/12 14:15:26;;;;;;;24.52;17.55;;;;;;;;;;6181961;23;20365;-86
2023/02/12 14:17:56;;;;;;;22.23;17.20;;;;;;;;;;6154729;23;20409;-85
2023/02/12 14:20:25;;;;;;;19.48;17.40;;;;;;;;;;6163470;23;20396;-88
2023/02/12 14:23:00;;;;;;;20.67;18.03;;;;;;;;;;6148240;23;20445;-86
2023/02/12 14:25:33;;;;;;;20.43;18.33;;;;;;;;;;6138459;23;20444;-85
2023/02/12 14:28:10;;;;;;;20.70;18.52;;;;;;;;;;6165399;23;20389;-88
2023/02/12 14:30:43;;;;;;;25.42;23.08;;;;;;;;;;6156304;23;20381;-87
2023/02/12 14:33:20;;;;;;;25.35;22.92;;;;;;;;;;6161851;23;20389;-86
2023/02/12 14:36:09;;;;;;;26.63;24.08;;;;;;;;;;6157731;23;21065;-88
2023/02/12 14:39:01;;;;;;;30.55;27.45;;;;;;;;;;6161544;23;20385;-86
2023/02/12 14:41:36;;;;;;;29.57;27.07;;;;;;;;;;6159074;23;20381;-86
2023/02/12 14:44:22;;;;;;;26.52;24.05;;;;;;;;;;6137416;23;20381;-86
2023/02/12 14:46:51;;;;;;;28.40;25.95;;;;;;;;;;6163617;23;21202;-86
2023/02/12 14:49:25;;;;;;;26.77;24.47;;;;;;;;;;6181322;23;20441;-87
2023/02/12 14:51:59;;;;;;;28.15;25.50;;;;;;;;;;6162387;23;20389;-87
2023/02/12 14:54:29;;;;;;;25.90;23.80;;;;;;;;;;6144138;23;20381;-86
2023/02/12 14:57:06;;;;;;;38.67;35.70;;;;;;;;;;6160906;23;21358;-86
2023/02/12 14:59:37;;;;;;;37.65;34.88;;;;;;;;;;6130343;23;20392;-85
2023/02/12 15:02:06;;;;;;;24.77;22.75;;;;;;;;;;6161520;23;20391;-87